UTM weather

Tunica Municipal Airport
Tunica, Mississippi, United States

Public forecast

Using degrees Fahrenheit for public forecast. Weather courtesy of forecast.io.

METAR (pilot weather report)

Retrieved 2019/08/25 21:35 UTC (0 seconds ago):

KUTA 252135Z AUTO 10005KT 4SM HZ 27/24 A2986 RMK AO2 TSNO

TAF (pilot weather forecast)

Closest forecast is Memphis International Airport, 28.3 nm (52.5 km) NE. Retrieved 2019/08/25 18:39 UTC (3 hours ago):

TAF KMEM 251737Z 2518/2624 12007KT P6SM VCTS SCT035CB BKN060 TEMPO 2519/2523 VRB10G15KT 3SM TSRA SCT010 BKN035CB FM260200 14008KT P6SM VCSH SCT015 BKN025 OVC080 FM260600 16007KT 6SM -SHRA SCT008 BKN015 FM261000 17007KT 5SM -SHRA BR OVC008 FM261500 18008KT P6SM VCSH SCT010 BKN020 FM261800 19008KT P6SM BKN035